createdAt,value
2023-02-15T00:01:19.326Z,1.62
2023-02-15T00:03:45.664Z,1.56
2023-02-15T00:06:11.985Z,1.51
2023-02-15T00:08:38.293Z,1.46
2023-02-15T00:11:04.622Z,1.57
2023-02-15T00:13:30.961Z,1.64
2023-02-15T00:15:57.262Z,1.65
2023-02-15T00:18:23.593Z,1.63
2023-02-15T00:20:49.895Z,1.64
2023-02-15T00:23:16.218Z,1.58
2023-02-15T00:25:42.526Z,1.63
2023-02-15T00:28:08.913Z,1.61
2023-02-15T00:30:35.284Z,1.57
2023-02-15T00:33:01.612Z,1.53
2023-02-15T00:35:27.943Z,1.50
2023-02-15T00:37:54.258Z,1.31
2023-02-15T00:40:20.602Z,1.31
2023-02-15T00:42:46.925Z,1.26
2023-02-15T00:45:13.222Z,1.15
2023-02-15T00:47:39.528Z,1.16
2023-02-15T00:50:06.520Z,1.26
2023-02-15T00:52:32.873Z,1.06
2023-02-15T00:54:59.256Z,1.11
2023-02-15T00:57:25.581Z,1.13
2023-02-15T00:59:52.252Z,1.01
2023-02-15T01:02:18.630Z,0.97
2023-02-15T01:04:45.023Z,0.94
2023-02-15T01:07:11.369Z,0.98
2023-02-15T01:09:37.733Z,0.94
2023-02-15T01:12:04.112Z,0.97
2023-02-15T01:14:30.419Z,0.90
2023-02-15T01:16:56.774Z,0.77
2023-02-15T01:19:23.125Z,0.71
2023-02-15T01:21:49.448Z,0.71
2023-02-15T01:24:15.829Z,0.81
2023-02-15T01:26:42.136Z,0.72
2023-02-15T01:29:08.571Z,0.77
2023-02-15T01:31:35.063Z,0.87
2023-02-15T01:34:01.535Z,0.79
2023-02-15T01:36:27.869Z,0.76
2023-02-15T01:38:54.247Z,0.89
2023-02-15T01:41:28.240Z,0.76
2023-02-15T01:43:54.630Z,0.84
2023-02-15T01:46:21.080Z,0.78
2023-02-15T01:48:47.455Z,0.82
2023-02-15T01:51:13.819Z,0.83
2023-02-15T01:53:40.549Z,0.75
2023-02-15T01:56:06.866Z,0.72
2023-02-15T01:58:33.196Z,0.74
2023-02-15T02:01:00.964Z,0.68
2023-02-15T02:03:27.738Z,0.80
2023-02-15T02:05:54.078Z,0.77
2023-02-15T02:08:20.406Z,0.79
2023-02-15T02:10:46.762Z,0.75
2023-02-15T02:13:13.103Z,0.81
2023-02-15T02:15:39.468Z,0.60
2023-02-15T02:18:05.858Z,0.75
2023-02-15T02:20:32.233Z,0.78
2023-02-15T02:22:58.566Z,0.83
2023-02-15T02:25:24.923Z,0.79
2023-02-15T02:27:51.822Z,0.72
2023-02-15T02:30:18.213Z,0.71
2023-02-15T02:32:44.610Z,0.73
2023-02-15T02:35:10.928Z,0.72
2023-02-15T02:37:37.248Z,0.67
2023-02-15T02:40:04.897Z,0.76
2023-02-15T02:42:31.262Z,0.67
2023-02-15T02:44:57.569Z,0.68
2023-02-15T02:47:25.266Z,0.56
2023-02-15T02:49:51.583Z,0.56
2023-02-15T02:52:17.894Z,0.61
2023-02-15T02:54:44.322Z,0.61
2023-02-15T02:57:10.659Z,0.61
2023-02-15T02:59:36.985Z,0.64
2023-02-15T03:02:03.348Z,0.57
2023-02-15T03:04:29.718Z,0.65
2023-02-15T03:06:56.032Z,0.62
2023-02-15T03:09:22.367Z,0.62
2023-02-15T03:11:49.358Z,0.59
2023-02-15T03:14:15.697Z,0.63
2023-02-15T03:16:42.018Z,0.58
2023-02-15T03:19:08.380Z,0.52
2023-02-15T03:21:34.740Z,0.53
2023-02-15T03:24:01.044Z,0.50
2023-02-15T03:26:27.358Z,0.46
2023-02-15T03:28:53.730Z,0.51
2023-02-15T03:31:20.133Z,0.48
2023-02-15T03:33:46.466Z,0.51
2023-02-15T03:36:12.781Z,0.48
2023-02-15T03:38:39.099Z,0.33
2023-02-15T03:41:11.530Z,0.19
2023-02-15T03:43:37.834Z,0.37
2023-02-15T03:46:05.526Z,0.35
2023-02-15T03:48:31.906Z,0.09
2023-02-15T03:51:17.149Z,0.18
2023-02-15T03:53:43.464Z,0.21
2023-02-15T03:56:09.770Z,0.27
2023-02-15T03:58:54.944Z,0.19
2023-02-15T04:01:40.313Z,0.22
2023-02-15T04:04:06.622Z,0.26
2023-02-15T04:06:32.930Z,0.26
2023-02-15T04:09:18.025Z,0.25
2023-02-15T04:11:44.356Z,0.21
2023-02-15T04:14:29.545Z,0.23
2023-02-15T04:16:55.927Z,0.29
2023-02-15T04:19:41.148Z,0.17
2023-02-15T04:22:26.141Z,0.19
2023-02-15T04:25:10.571Z,0.21
2023-02-15T04:27:36.890Z,0.25
2023-02-15T04:30:03.228Z,0.25
2023-02-15T04:32:29.553Z,0.19
2023-02-15T04:34:55.875Z,0.23
2023-02-15T04:37:22.202Z,0.19
2023-02-15T04:39:48.514Z,0.07
2023-02-15T04:42:14.819Z,0.15
2023-02-15T04:44:41.133Z,0.04
2023-02-15T04:47:07.457Z,0.10
2023-02-15T04:49:33.807Z,0.17
2023-02-15T04:52:00.111Z,0.12
2023-02-15T04:54:26.417Z,0.17
2023-02-15T04:56:52.738Z,0.17
2023-02-15T04:59:19.039Z,0.19
2023-02-15T05:01:45.339Z,0.11
2023-02-15T05:04:11.950Z,0.19
2023-02-15T05:06:38.296Z,0.12
2023-02-15T05:09:04.639Z,0.16
2023-02-15T05:11:30.954Z,0.17
2023-02-15T05:13:57.261Z,0.16
2023-02-15T05:16:23.621Z,0.14
2023-02-15T05:18:49.982Z,0.12
2023-02-15T05:21:17.592Z,0.11
2023-02-15T05:23:43.926Z,0.07
2023-02-15T05:26:29.085Z,0.09
2023-02-15T05:28:55.406Z,0.07
2023-02-15T05:31:21.905Z,0.11
2023-02-15T05:33:48.308Z,0.19
2023-02-15T05:36:14.684Z,0.12
2023-02-15T05:38:41.041Z,0.14
2023-02-15T05:41:07.346Z,0.14
2023-02-15T05:43:33.711Z,0.16
2023-02-15T05:46:00.298Z,0.09
2023-02-15T05:48:26.814Z,0.19
2023-02-15T05:50:53.129Z,0.16
2023-02-15T05:53:19.442Z,0.19
2023-02-15T05:55:45.757Z,0.20
2023-02-15T05:58:12.074Z,0.23
2023-02-15T06:00:38.418Z,0.15
2023-02-15T06:03:04.796Z,0.20
2023-02-15T06:05:31.139Z,0.18
2023-02-15T06:07:57.449Z,0.28
2023-02-15T06:10:23.769Z,0.24
2023-02-15T06:12:50.092Z,0.19
2023-02-15T06:15:16.469Z,0.20
2023-02-15T06:17:43.509Z,0.17
2023-02-15T06:20:10.168Z,0.21
2023-02-15T06:22:36.471Z,0.25
2023-02-15T06:25:02.833Z,0.23
2023-02-15T06:27:29.179Z,0.27
2023-02-15T06:29:55.538Z,0.25
2023-02-15T06:32:21.955Z,0.28
2023-02-15T06:34:48.898Z,0.25
2023-02-15T06:37:15.459Z,0.20
2023-02-15T06:39:41.892Z,0.31
2023-02-15T06:42:08.221Z,0.31
2023-02-15T06:44:34.536Z,0.37
2023-02-15T06:47:00.858Z,0.45
2023-02-15T06:49:27.188Z,0.43
2023-02-15T06:51:53.539Z,0.44
2023-02-15T06:54:19.861Z,0.46
2023-02-15T06:56:46.185Z,0.56
2023-02-15T06:59:12.506Z,0.57
2023-02-15T07:01:39.171Z,0.61
2023-02-15T07:04:05.539Z,0.76
2023-02-15T07:06:31.868Z,0.73
2023-02-15T07:08:58.169Z,0.77
2023-02-15T07:11:43.431Z,0.85
2023-02-15T07:14:09.737Z,0.87
2023-02-15T07:16:36.098Z,0.97
2023-02-15T07:19:02.899Z,1.12
2023-02-15T07:21:29.231Z,1.16
2023-02-15T07:23:55.559Z,1.26
2023-02-15T07:26:21.864Z,1.42
2023-02-15T07:28:48.177Z,1.51
2023-02-15T07:31:14.520Z,1.61
2023-02-15T07:33:40.844Z,1.64
2023-02-15T07:36:07.234Z,1.82
2023-02-15T07:38:33.555Z,1.89
2023-02-15T07:41:00.251Z,2.05
2023-02-15T07:43:26.568Z,2.17
2023-02-15T07:45:52.895Z,2.23
2023-02-15T07:48:19.225Z,2.30
2023-02-15T07:50:45.551Z,2.40
2023-02-15T07:53:11.926Z,2.44
2023-02-15T07:55:38.330Z,2.64
2023-02-15T07:58:04.649Z,2.58
2023-02-15T08:00:31.056Z,2.68
2023-02-15T08:03:16.099Z,2.62
2023-02-15T08:05:42.593Z,2.78
2023-02-15T08:08:08.971Z,3.09
2023-02-15T08:10:54.231Z,3.06
2023-02-15T08:13:20.587Z,3.22
2023-02-15T08:15:46.934Z,3.27
2023-02-15T08:18:13.906Z,3.26
2023-02-15T08:20:40.263Z,3.29
2023-02-15T08:23:06.581Z,3.31
2023-02-15T08:25:32.902Z,3.78
2023-02-15T08:27:59.204Z,3.73
2023-02-15T08:30:25.572Z,3.96
2023-02-15T08:32:51.948Z,3.79
2023-02-15T08:35:18.282Z,3.90
2023-02-15T08:37:44.591Z,3.71
2023-02-15T08:40:11.054Z,3.73
2023-02-15T08:42:37.397Z,3.74
2023-02-15T08:45:03.736Z,3.72
2023-02-15T08:47:30.062Z,3.98
2023-02-15T08:49:56.998Z,4.26
2023-02-15T08:52:23.337Z,4.36
2023-02-15T08:54:49.654Z,4.15
2023-02-15T08:57:16.000Z,4.26
2023-02-15T08:59:42.335Z,4.31
2023-02-15T09:02:08.696Z,4.30
2023-02-15T09:04:35.112Z,4.32
2023-02-15T09:07:01.485Z,4.74
2023-02-15T09:09:27.840Z,4.46
2023-02-15T09:11:58.723Z,4.39
2023-02-15T09:14:27.234Z,4.60
2023-02-15T09:16:53.609Z,4.52
2023-02-15T09:19:20.198Z,4.99
2023-02-15T09:21:46.547Z,4.95
2023-02-15T09:24:12.856Z,4.80
2023-02-15T09:26:40.381Z,5.02
2023-02-15T09:29:06.745Z,5.13
2023-02-15T09:31:33.181Z,5.28
2023-02-15T09:33:59.646Z,5.10
2023-02-15T09:36:25.962Z,5.47
2023-02-15T09:38:52.267Z,5.61
2023-02-15T09:41:18.588Z,5.30
2023-02-15T09:43:45.080Z,5.41
2023-02-15T09:46:11.527Z,5.75
2023-02-15T09:48:37.877Z,5.44
2023-02-15T09:51:04.472Z,5.78
2023-02-15T09:53:30.926Z,5.81
2023-02-15T09:55:57.272Z,5.71
2023-02-15T09:58:23.603Z,6.24
2023-02-15T10:00:50.544Z,5.90
2023-02-15T10:03:16.847Z,6.51
2023-02-15T10:05:43.167Z,6.38
2023-02-15T10:08:09.486Z,5.93
2023-02-15T10:10:35.799Z,6.28
2023-02-15T10:13:02.207Z,6.31
2023-02-15T10:15:28.566Z,6.29
2023-02-15T10:17:54.893Z,6.48
2023-02-15T10:20:21.213Z,5.82
2023-02-15T10:22:47.722Z,6.34
2023-02-15T10:25:14.323Z,5.95
2023-02-15T10:27:40.649Z,5.97
2023-02-15T10:30:07.019Z,6.10
2023-02-15T10:32:33.414Z,6.35
2023-02-15T10:34:59.737Z,6.89
2023-02-15T10:37:26.038Z,6.95
2023-02-15T10:39:52.337Z,6.40
2023-02-15T10:42:18.664Z,6.87
2023-02-15T10:44:44.973Z,6.44
2023-02-15T10:47:12.777Z,6.85
2023-02-15T10:49:39.309Z,6.73
2023-02-15T10:52:05.669Z,7.00
2023-02-15T10:54:31.994Z,6.55
2023-02-15T10:56:58.327Z,6.75
2023-02-15T10:59:24.632Z,7.06
2023-02-15T11:01:51.029Z,6.53
2023-02-15T11:04:17.542Z,6.69
2023-02-15T11:06:43.914Z,7.08
2023-02-15T11:09:10.745Z,7.04
2023-02-15T11:11:37.126Z,6.67
2023-02-15T11:14:03.460Z,6.94
2023-02-15T11:16:29.798Z,6.76
2023-02-15T11:18:56.116Z,7.03
2023-02-15T11:21:22.457Z,7.11
2023-02-15T11:23:49.054Z,7.15
2023-02-15T11:26:15.454Z,6.70
2023-02-15T11:28:41.778Z,6.61
2023-02-15T11:31:08.214Z,6.79
2023-02-15T11:33:34.565Z,7.15
2023-02-15T11:36:00.865Z,6.96
2023-02-15T11:38:27.364Z,7.00
2023-02-15T11:40:53.771Z,6.90
2023-02-15T11:43:20.126Z,7.13
2023-02-15T11:45:46.452Z,6.67
2023-02-15T11:48:12.777Z,7.04
2023-02-15T11:50:39.164Z,7.09
2023-02-15T11:53:05.477Z,7.53
2023-02-15T11:55:31.900Z,7.44
2023-02-15T11:57:58.251Z,7.07
2023-02-15T12:00:24.606Z,7.16
2023-02-15T12:02:50.941Z,7.15
2023-02-15T12:05:17.266Z,7.23
2023-02-15T12:07:44.589Z,7.11
2023-02-15T12:10:13.011Z,7.15
2023-02-15T12:12:39.398Z,7.07
2023-02-15T12:15:06.087Z,6.73
2023-02-15T12:17:32.405Z,6.99
2023-02-15T12:19:58.756Z,6.97
2023-02-15T12:22:25.121Z,7.01
2023-02-15T12:24:52.288Z,6.86
2023-02-15T12:27:18.648Z,7.01
2023-02-15T12:29:44.997Z,7.13
2023-02-15T12:32:11.367Z,7.04
2023-02-15T12:34:40.579Z,7.06
2023-02-15T12:37:06.955Z,7.01
2023-02-15T12:39:33.335Z,7.35
2023-02-15T12:41:59.694Z,7.31
2023-02-15T12:44:27.067Z,7.37
2023-02-15T12:46:53.424Z,7.01
2023-02-15T12:49:21.169Z,7.01
2023-02-15T12:51:47.669Z,7.05
2023-02-15T12:54:13.970Z,7.11
2023-02-15T12:56:40.314Z,7.04
2023-02-15T12:59:06.960Z,7.13
2023-02-15T13:01:33.305Z,7.09
2023-02-15T13:03:59.690Z,7.19
2023-02-15T13:06:26.070Z,6.83
2023-02-15T13:08:52.379Z,6.77
2023-02-15T13:11:18.677Z,6.90
2023-02-15T13:13:45.006Z,6.87
2023-02-15T13:16:11.384Z,7.05
2023-02-15T13:18:37.774Z,6.78
2023-02-15T13:21:04.481Z,6.93
2023-02-15T13:23:31.013Z,6.89
2023-02-15T13:25:57.330Z,6.93
2023-02-15T13:28:23.689Z,6.70
2023-02-15T13:30:50.124Z,6.78
2023-02-15T13:33:16.525Z,6.91
2023-02-15T13:35:42.854Z,6.85
2023-02-15T13:38:09.194Z,6.78
2023-02-15T13:40:35.585Z,6.87
2023-02-15T13:43:02.110Z,6.71
2023-02-15T13:45:28.565Z,6.74
2023-02-15T13:47:54.909Z,6.95
2023-02-15T13:50:21.417Z,6.84
2023-02-15T13:52:47.737Z,6.91
2023-02-15T13:55:14.034Z,6.87
2023-02-15T13:57:40.445Z,6.76
2023-02-15T14:00:06.809Z,6.80
2023-02-15T14:02:33.211Z,6.79
2023-02-15T14:04:59.552Z,6.91
2023-02-15T14:07:25.864Z,6.83
2023-02-15T14:09:52.392Z,6.66
2023-02-15T14:12:18.742Z,6.86
2023-02-15T14:14:45.114Z,6.63
2023-02-15T14:17:11.855Z,6.60
2023-02-15T14:19:38.300Z,6.53
2023-02-15T14:22:06.597Z,6.37
2023-02-15T14:24:33.449Z,6.51
2023-02-15T14:26:59.807Z,6.49
2023-02-15T14:29:26.136Z,6.33
2023-02-15T14:31:52.575Z,6.13
2023-02-15T14:34:19.071Z,6.08
2023-02-15T14:36:45.645Z,6.18
2023-02-15T14:39:32.585Z,6.22
2023-02-15T14:41:59.745Z,6.16
2023-02-15T14:44:26.097Z,6.29
2023-02-15T14:46:52.483Z,6.12
2023-02-15T14:49:19.243Z,6.20
2023-02-15T14:51:48.697Z,6.07
2023-02-15T14:54:14.998Z,6.08
2023-02-15T14:56:41.315Z,6.18
2023-02-15T14:59:07.734Z,6.18
2023-02-15T15:01:34.255Z,5.97
2023-02-15T15:04:00.800Z,6.02
2023-02-15T15:06:27.546Z,5.85
2023-02-15T15:08:56.696Z,5.88
2023-02-15T15:11:42.184Z,5.76
2023-02-15T15:14:09.663Z,5.63
2023-02-15T15:16:36.064Z,5.72
2023-02-15T15:19:02.415Z,5.27
2023-02-15T15:21:28.734Z,5.26
2023-02-15T15:23:55.604Z,5.16
2023-02-15T15:26:21.914Z,5.07
2023-02-15T15:28:48.307Z,4.91
2023-02-15T15:31:14.709Z,4.98
2023-02-15T15:33:41.074Z,4.84
2023-02-15T15:36:07.462Z,4.95
2023-02-15T15:38:33.810Z,4.99
2023-02-15T15:41:00.147Z,4.68
2023-02-15T15:43:29.078Z,4.58
2023-02-15T15:45:55.440Z,4.56
2023-02-15T15:48:21.870Z,4.38
2023-02-15T15:50:49.663Z,4.34
2023-02-15T15:53:16.653Z,4.30
2023-02-15T15:55:43.019Z,4.22
2023-02-15T15:58:09.422Z,4.20
2023-02-15T16:00:35.750Z,4.14
2023-02-15T16:03:02.079Z,4.11
2023-02-15T16:05:28.518Z,3.97
2023-02-15T16:07:54.899Z,3.95
2023-02-15T16:10:21.206Z,3.98
2023-02-15T16:12:47.563Z,3.83
2023-02-15T16:15:13.896Z,3.79
2023-02-15T16:17:40.244Z,3.73
2023-02-15T16:20:06.573Z,3.64
2023-02-15T16:22:32.872Z,3.72
2023-02-15T16:24:59.185Z,3.56
2023-02-15T16:27:25.494Z,3.30
2023-02-15T16:29:51.826Z,3.34
2023-02-15T16:32:19.372Z,3.32
2023-02-15T16:34:45.689Z,3.29
2023-02-15T16:37:12.082Z,3.16
2023-02-15T16:39:38.414Z,3.16
2023-02-15T16:42:05.369Z,3.00
2023-02-15T16:44:34.018Z,2.98
2023-02-15T16:47:00.398Z,2.94
2023-02-15T16:49:26.772Z,2.95
2023-02-15T16:51:53.079Z,2.96
2023-02-15T16:54:19.456Z,2.85
2023-02-15T16:56:47.324Z,2.75
2023-02-15T16:59:13.634Z,2.82
2023-02-15T17:01:39.981Z,2.73
2023-02-15T17:04:06.367Z,2.62
2023-02-15T17:06:32.739Z,2.42
2023-02-15T17:08:59.080Z,2.64
2023-02-15T17:11:25.418Z,2.61
2023-02-15T17:13:51.724Z,2.42
2023-02-15T17:16:18.066Z,2.53
2023-02-15T17:18:44.433Z,2.39
2023-02-15T17:21:10.798Z,2.42
2023-02-15T17:23:37.118Z,2.37
2023-02-15T17:26:03.712Z,2.03
2023-02-15T17:28:30.274Z,2.07
2023-02-15T17:30:56.771Z,2.23
2023-02-15T17:33:23.517Z,2.19
2023-02-15T17:35:49.838Z,2.22
2023-02-15T17:38:16.152Z,2.26
2023-02-15T17:40:42.495Z,2.15
2023-02-15T17:43:08.805Z,2.15
2023-02-15T17:45:35.259Z,2.16
2023-02-15T17:48:01.585Z,2.08
2023-02-15T17:50:28.104Z,2.05
2023-02-15T17:52:54.413Z,2.05
2023-02-15T17:55:36.254Z,2.08
2023-02-15T17:58:02.597Z,2.08
2023-02-15T18:00:47.775Z,1.97
2023-02-15T18:03:33.082Z,2.00
2023-02-15T18:06:17.978Z,1.85
2023-02-15T18:09:02.751Z,1.99
2023-02-15T18:11:38.200Z,1.89
2023-02-15T18:14:04.568Z,1.94
2023-02-15T18:16:30.939Z,1.79
2023-02-15T18:18:57.264Z,1.78
2023-02-15T18:21:23.602Z,1.79
2023-02-15T18:23:49.921Z,1.78
2023-02-15T18:26:16.217Z,1.80
2023-02-15T18:28:42.552Z,1.67
2023-02-15T18:31:08.934Z,1.80
2023-02-15T18:33:35.297Z,1.83
2023-02-15T18:36:02.188Z,1.84
2023-02-15T18:38:28.532Z,1.82
2023-02-15T18:40:54.832Z,1.79
2023-02-15T18:43:21.199Z,1.69
2023-02-15T18:45:47.570Z,1.65
2023-02-15T18:48:15.448Z,1.51
2023-02-15T18:50:41.771Z,1.53
2023-02-15T18:53:08.142Z,1.68
2023-02-15T18:55:35.605Z,1.71
2023-02-15T18:58:01.933Z,1.69
2023-02-15T19:00:33.168Z,1.62
2023-02-15T19:02:59.493Z,1.61
2023-02-15T19:05:27.653Z,1.52
2023-02-15T19:07:54.030Z,1.50
2023-02-15T19:10:20.370Z,1.57
2023-02-15T19:12:46.732Z,1.57
2023-02-15T19:15:13.049Z,1.52
2023-02-15T19:17:39.476Z,1.56
2023-02-15T19:20:05.834Z,1.62
2023-02-15T19:22:33.719Z,1.40
2023-02-15T19:25:00.033Z,1.47
2023-02-15T19:27:26.367Z,1.43
2023-02-15T19:29:52.852Z,1.44
2023-02-15T19:32:20.757Z,1.39
2023-02-15T19:34:47.136Z,1.42
2023-02-15T19:37:13.454Z,1.41
2023-02-15T19:39:39.801Z,1.44
2023-02-15T19:42:06.138Z,1.34
2023-02-15T19:44:32.459Z,1.47
2023-02-15T19:46:58.880Z,1.36
2023-02-15T19:49:25.203Z,1.41
2023-02-15T19:51:51.520Z,1.39
2023-02-15T19:54:17.838Z,1.22
2023-02-15T19:56:44.139Z,1.31
2023-02-15T19:59:10.446Z,1.34
2023-02-15T20:01:36.807Z,1.31
2023-02-15T20:04:03.158Z,1.24
2023-02-15T20:06:29.470Z,1.23
2023-02-15T20:08:55.911Z,1.31
2023-02-15T20:11:22.243Z,1.28
2023-02-15T20:13:48.572Z,1.19
2023-02-15T20:16:15.010Z,1.25
2023-02-15T20:18:44.682Z,1.24
2023-02-15T20:21:11.037Z,1.30
2023-02-15T20:23:37.442Z,1.19
2023-02-15T20:26:03.784Z,1.30
2023-02-15T20:28:30.104Z,1.20
2023-02-15T20:30:59.845Z,1.26
2023-02-15T20:33:26.226Z,1.18
2023-02-15T20:35:52.570Z,1.23
2023-02-15T20:38:19.070Z,1.21
2023-02-15T20:41:05.555Z,1.20
2023-02-15T20:43:31.944Z,1.26
2023-02-15T20:45:58.283Z,1.23
2023-02-15T20:48:24.609Z,1.27
2023-02-15T20:50:50.986Z,1.33
2023-02-15T20:53:17.337Z,1.18
2023-02-15T20:55:44.094Z,1.25
2023-02-15T20:58:10.432Z,1.21
2023-02-15T21:00:36.745Z,1.25
2023-02-15T21:03:03.087Z,1.23
2023-02-15T21:05:30.521Z,1.24
2023-02-15T21:07:56.839Z,1.18
2023-02-15T21:10:23.208Z,1.28
2023-02-15T21:12:49.608Z,1.26
2023-02-15T21:15:15.957Z,1.18
2023-02-15T21:17:42.258Z,1.26
2023-02-15T21:20:08.572Z,1.20
2023-02-15T21:22:34.921Z,1.18
2023-02-15T21:25:02.680Z,1.17
2023-02-15T21:27:29.145Z,1.16
2023-02-15T21:29:55.454Z,1.26
2023-02-15T21:32:21.971Z,1.20
2023-02-15T21:34:48.350Z,1.22
2023-02-15T21:37:14.659Z,1.19
2023-02-15T21:39:40.958Z,1.20
2023-02-15T21:42:26.097Z,1.20
2023-02-15T21:45:11.098Z,1.16
2023-02-15T21:47:52.489Z,1.12
2023-02-15T21:50:37.732Z,1.12
2023-02-15T21:53:04.036Z,1.17
2023-02-15T21:55:30.329Z,1.10
2023-02-15T21:57:56.662Z,1.12
2023-02-15T22:00:22.994Z,1.13
2023-02-15T22:02:49.313Z,1.14
2023-02-15T22:05:15.691Z,1.01
2023-02-15T22:07:42.021Z,1.10
2023-02-15T22:10:08.341Z,1.11
2023-02-15T22:12:34.667Z,1.12
2023-02-15T22:15:01.749Z,1.19
2023-02-15T22:17:31.150Z,1.14
2023-02-15T22:19:57.688Z,1.08
2023-02-15T22:22:24.056Z,0.99
2023-02-15T22:24:50.386Z,1.03
2023-02-15T22:27:16.699Z,1.03
2023-02-15T22:29:43.205Z,0.98
2023-02-15T22:32:09.656Z,0.99
2023-02-15T22:34:36.070Z,0.98
2023-02-15T22:37:03.286Z,0.91
2023-02-15T22:39:29.604Z,0.96
2023-02-15T22:41:55.911Z,0.94
2023-02-15T22:44:22.237Z,1.05
2023-02-15T22:46:48.568Z,1.01
2023-02-15T22:49:14.911Z,1.07
2023-02-15T22:51:41.269Z,1.02
2023-02-15T22:54:07.614Z,1.04
2023-02-15T22:56:33.954Z,1.08
2023-02-15T22:59:00.349Z,1.02
2023-02-15T23:01:26.670Z,1.06
2023-02-15T23:03:53.076Z,1.08
2023-02-15T23:06:19.419Z,1.06
2023-02-15T23:08:45.734Z,1.03
2023-02-15T23:11:12.121Z,1.03
2023-02-15T23:13:38.455Z,1.06
2023-02-15T23:16:04.786Z,1.01
2023-02-15T23:18:31.433Z,0.94
2023-02-15T23:20:57.788Z,1.03
2023-02-15T23:23:24.145Z,0.99
2023-02-15T23:25:50.544Z,0.97
2023-02-15T23:28:16.833Z,0.96
2023-02-15T23:30:43.160Z,0.95
2023-02-15T23:33:09.459Z,0.95
2023-02-15T23:35:35.778Z,0.88
2023-02-15T23:38:02.122Z,0.95
2023-02-15T23:40:47.251Z,0.86
2023-02-15T23:43:13.575Z,0.83
2023-02-15T23:45:39.931Z,0.87
2023-02-15T23:48:25.231Z,0.89
2023-02-15T23:50:51.545Z,0.87
2023-02-15T23:53:17.859Z,0.83
2023-02-15T23:55:44.175Z,0.88
2023-02-15T23:58:10.496Z,0.83
